sensor_id;sensor_type;location;lat;lon;timestamp;temperature;humidity
20744;DHT22;56303;52.160;-0.428;2023-03-09T00:00:21;2.00;99.90
20744;DHT22;56303;52.160;-0.428;2023-03-09T00:02:49;1.30;99.90
20744;DHT22;56303;52.160;-0.428;2023-03-09T00:05:16;1.70;99.90
20744;DHT22;56303;52.160;-0.428;2023-03-09T00:07:44;2.10;99.90
20744;DHT22;56303;52.160;-0.428;2023-03-09T00:10:12;1.60;99.90
20744;DHT22;56303;52.160;-0.428;2023-03-09T00:12:40;1.60;99.90
20744;DHT22;56303;52.160;-0.428;2023-03-09T00:15:09;1.60;99.90
20744;DHT22;56303;52.160;-0.428;2023-03-09T00:17:36;1.30;99.90
20744;DHT22;56303;52.160;-0.428;2023-03-09T00:20:05;1.60;99.90
20744;DHT22;56303;52.160;-0.428;2023-03-09T00:22:47;1.60;99.90
20744;DHT22;56303;52.160;-0.428;2023-03-09T00:25:16;1.50;99.90
20744;DHT22;56303;52.160;-0.428;2023-03-09T00:27:47;1.50;99.90
20744;DHT22;56303;52.160;-0.428;2023-03-09T00:30:16;1.50;99.90
20744;DHT22;56303;52.160;-0.428;2023-03-09T00:32:45;1.40;99.90
20744;DHT22;56303;52.160;-0.428;2023-03-09T00:35:12;1.50;99.90
20744;DHT22;56303;52.160;-0.428;2023-03-09T00:37:39;1.30;99.90
20744;DHT22;56303;52.160;-0.428;2023-03-09T00:40:08;1.50;99.90
20744;DHT22;56303;52.160;-0.428;2023-03-09T00:42:37;1.50;99.90
20744;DHT22;56303;52.160;-0.428;2023-03-09T00:45:05;1.80;99.90
20744;DHT22;56303;52.160;-0.428;2023-03-09T00:47:34;1.50;99.90
20744;DHT22;56303;52.160;-0.428;2023-03-09T00:50:01;1.60;99.90
20744;DHT22;56303;52.160;-0.428;2023-03-09T00:52:28;1.50;99.90
20744;DHT22;56303;52.160;-0.428;2023-03-09T00:54:56;1.60;99.90
20744;DHT22;56303;52.160;-0.428;2023-03-09T00:57:24;1.50;99.90
20744;DHT22;56303;52.160;-0.428;2023-03-09T00:59:51;2.30;99.90
20744;DHT22;56303;52.160;-0.428;2023-03-09T01:02:19;1.40;99.90
20744;DHT22;56303;52.160;-0.428;2023-03-09T01:04:47;1.30;99.90
20744;DHT22;56303;52.160;-0.428;2023-03-09T01:07:15;1.40;99.90
20744;DHT22;56303;52.160;-0.428;2023-03-09T01:09:42;1.50;99.90
20744;DHT22;56303;52.160;-0.428;2023-03-09T01:12:09;1.60;99.90
20744;DHT22;56303;52.160;-0.428;2023-03-09T01:14:36;1.90;99.90
20744;DHT22;56303;52.160;-0.428;2023-03-09T01:17:03;1.50;99.90
20744;DHT22;56303;52.160;-0.428;2023-03-09T01:19:30;1.60;99.90
20744;DHT22;56303;52.160;-0.428;2023-03-09T01:21:59;1.60;99.90
20744;DHT22;56303;52.160;-0.428;2023-03-09T01:24:28;1.60;99.90
20744;DHT22;56303;52.160;-0.428;2023-03-09T01:26:55;1.70;99.90
20744;DHT22;56303;52.160;-0.428;2023-03-09T02:14:31;1.20;99.90
20744;DHT22;56303;52.160;-0.428;2023-03-09T02:16:58;1.40;99.90
20744;DHT22;56303;52.160;-0.428;2023-03-09T02:19:53;1.40;99.90
20744;DHT22;56303;52.160;-0.428;2023-03-09T02:22:21;1.60;99.90
20744;DHT22;56303;52.160;-0.428;2023-03-09T02:27:35;1.60;99.90
20744;DHT22;56303;52.160;-0.428;2023-03-09T02:30:03;1.70;99.90
20744;DHT22;56303;52.160;-0.428;2023-03-09T02:32:31;1.60;99.90
20744;DHT22;56303;52.160;-0.428;2023-03-09T02:34:58;1.70;99.90
20744;DHT22;56303;52.160;-0.428;2023-03-09T02:37:29;1.70;99.90
20744;DHT22;56303;52.160;-0.428;2023-03-09T02:40:01;2.00;99.90
20744;DHT22;56303;52.160;-0.428;2023-03-09T02:42:31;1.90;99.90
20744;DHT22;56303;52.160;-0.428;2023-03-09T02:44:58;2.00;99.90
20744;DHT22;56303;52.160;-0.428;2023-03-09T02:47:25;2.00;99.90
20744;DHT22;56303;52.160;-0.428;2023-03-09T02:49:52;1.90;99.90
20744;DHT22;56303;52.160;-0.428;2023-03-09T02:52:18;1.60;99.90
20744;DHT22;56303;52.160;-0.428;2023-03-09T02:54:45;1.60;99.90
20744;DHT22;56303;52.160;-0.428;2023-03-09T02:57:13;1.50;99.90
20744;DHT22;56303;52.160;-0.428;2023-03-09T02:59:40;1.60;99.90
20744;DHT22;56303;52.160;-0.428;2023-03-09T03:02:07;1.70;99.90
20744;DHT22;56303;52.160;-0.428;2023-03-09T03:04:35;1.70;99.90
20744;DHT22;56303;52.160;-0.428;2023-03-09T03:07:02;1.70;99.90
20744;DHT22;56303;52.160;-0.428;2023-03-09T03:09:29;1.60;99.90
20744;DHT22;56303;52.160;-0.428;2023-03-09T03:11:57;1.70;99.90
20744;DHT22;56303;52.160;-0.428;2023-03-09T03:14:24;1.60;99.90
20744;DHT22;56303;52.160;-0.428;2023-03-09T03:16:51;1.60;99.90
20744;DHT22;56303;52.160;-0.428;2023-03-09T03:19:18;1.80;99.90
20744;DHT22;56303;52.160;-0.428;2023-03-09T03:21:44;1.70;99.90
20744;DHT22;56303;52.160;-0.428;2023-03-09T03:24:11;2.10;99.90
20744;DHT22;56303;52.160;-0.428;2023-03-09T03:26:38;1.70;99.90
20744;DHT22;56303;52.160;-0.428;2023-03-09T03:29:05;1.80;99.90
20744;DHT22;56303;52.160;-0.428;2023-03-09T03:31:32;2.30;99.90
20744;DHT22;56303;52.160;-0.428;2023-03-09T03:33:58;1.80;99.90
20744;DHT22;56303;52.160;-0.428;2023-03-09T03:36:25;2.00;99.90
20744;DHT22;56303;52.160;-0.428;2023-03-09T03:38:52;2.00;99.90
20744;DHT22;56303;52.160;-0.428;2023-03-09T03:41:19;1.90;99.90
20744;DHT22;56303;52.160;-0.428;2023-03-09T03:43:46;1.90;99.90
20744;DHT22;56303;52.160;-0.428;2023-03-09T03:46:13;1.80;99.90
20744;DHT22;56303;52.160;-0.428;2023-03-09T03:48:39;1.70;99.90
20744;DHT22;56303;52.160;-0.428;2023-03-09T03:51:06;1.60;99.90
20744;DHT22;56303;52.160;-0.428;2023-03-09T03:53:33;1.70;99.90
20744;DHT22;56303;52.160;-0.428;2023-03-09T03:56:00;1.80;99.90
20744;DHT22;56303;52.160;-0.428;2023-03-09T03:58:27;1.70;99.90
20744;DHT22;56303;52.160;-0.428;2023-03-09T04:00:53;1.70;99.90
20744;DHT22;56303;52.160;-0.428;2023-03-09T04:03:20;1.80;99.90
20744;DHT22;56303;52.160;-0.428;2023-03-09T04:05:47;2.10;99.90
20744;DHT22;56303;52.160;-0.428;2023-03-09T04:08:14;2.20;99.90
20744;DHT22;56303;52.160;-0.428;2023-03-09T04:10:41;2.20;99.90
20744;DHT22;56303;52.160;-0.428;2023-03-09T04:13:07;2.10;99.90
20744;DHT22;56303;52.160;-0.428;2023-03-09T04:15:34;2.10;99.90
20744;DHT22;56303;52.160;-0.428;2023-03-09T04:18:01;2.00;99.90
20744;DHT22;56303;52.160;-0.428;2023-03-09T04:20:28;1.80;99.90
20744;DHT22;56303;52.160;-0.428;2023-03-09T04:22:55;1.70;99.90
20744;DHT22;56303;52.160;-0.428;2023-03-09T04:25:22;1.90;99.90
20744;DHT22;56303;52.160;-0.428;2023-03-09T04:27:49;2.00;99.90
20744;DHT22;56303;52.160;-0.428;2023-03-09T04:30:16;2.10;99.90
20744;DHT22;56303;52.160;-0.428;2023-03-09T04:32:47;2.10;99.90
20744;DHT22;56303;52.160;-0.428;2023-03-09T04:35:14;2.10;99.90
20744;DHT22;56303;52.160;-0.428;2023-03-09T04:37:41;2.10;99.90
20744;DHT22;56303;52.160;-0.428;2023-03-09T04:40:10;2.00;99.90
20744;DHT22;56303;52.160;-0.428;2023-03-09T04:42:37;2.10;99.90
20744;DHT22;56303;52.160;-0.428;2023-03-09T04:45:04;2.00;99.90
20744;DHT22;56303;52.160;-0.428;2023-03-09T04:47:31;2.10;99.90
20744;DHT22;56303;52.160;-0.428;2023-03-09T04:49:58;2.10;99.90
20744;DHT22;56303;52.160;-0.428;2023-03-09T04:52:25;2.00;99.90
20744;DHT22;56303;52.160;-0.428;2023-03-09T04:54:52;2.10;99.90
20744;DHT22;56303;52.160;-0.428;2023-03-09T04:57:21;2.00;99.90
20744;DHT22;56303;52.160;-0.428;2023-03-09T04:59:48;1.90;99.90
20744;DHT22;56303;52.160;-0.428;2023-03-09T05:02:14;1.80;99.90
20744;DHT22;56303;52.160;-0.428;2023-03-09T05:04:41;1.90;99.90
20744;DHT22;56303;52.160;-0.428;2023-03-09T05:07:08;1.60;99.90
20744;DHT22;56303;52.160;-0.428;2023-03-09T05:09:35;1.70;99.90
20744;DHT22;56303;52.160;-0.428;2023-03-09T05:12:02;1.80;99.90
20744;DHT22;56303;52.160;-0.428;2023-03-09T05:14:29;1.80;99.90
20744;DHT22;56303;52.160;-0.428;2023-03-09T05:16:56;2.00;99.90
20744;DHT22;56303;52.160;-0.428;2023-03-09T05:19:23;1.90;99.90
20744;DHT22;56303;52.160;-0.428;2023-03-09T05:21:50;2.00;99.90
20744;DHT22;56303;52.160;-0.428;2023-03-09T05:24:17;1.90;99.90
20744;DHT22;56303;52.160;-0.428;2023-03-09T05:26:43;1.80;99.90
20744;DHT22;56303;52.160;-0.428;2023-03-09T05:29:10;1.80;99.90
20744;DHT22;56303;52.160;-0.428;2023-03-09T05:31:37;1.90;99.90
20744;DHT22;56303;52.160;-0.428;2023-03-09T05:34:04;1.70;99.90
20744;DHT22;56303;52.160;-0.428;2023-03-09T05:36:31;1.80;99.90
20744;DHT22;56303;52.160;-0.428;2023-03-09T05:38:59;1.70;99.90
20744;DHT22;56303;52.160;-0.428;2023-03-09T05:41:25;1.80;99.90
20744;DHT22;56303;52.160;-0.428;2023-03-09T05:43:52;1.60;99.90
20744;DHT22;56303;52.160;-0.428;2023-03-09T05:46:19;1.50;99.90
20744;DHT22;56303;52.160;-0.428;2023-03-09T05:48:47;1.70;99.90
20744;DHT22;56303;52.160;-0.428;2023-03-09T05:51:14;1.80;99.90
20744;DHT22;56303;52.160;-0.428;2023-03-09T05:53:41;1.80;99.90
20744;DHT22;56303;52.160;-0.428;2023-03-09T05:56:08;1.80;99.90
20744;DHT22;56303;52.160;-0.428;2023-03-09T05:58:38;1.70;99.90
20744;DHT22;56303;52.160;-0.428;2023-03-09T06:01:04;1.70;99.90
20744;DHT22;56303;52.160;-0.428;2023-03-09T06:03:31;1.80;99.90
20744;DHT22;56303;52.160;-0.428;2023-03-09T06:06:03;1.70;99.90
20744;DHT22;56303;52.160;-0.428;2023-03-09T06:08:32;1.70;99.90
20744;DHT22;56303;52.160;-0.428;2023-03-09T06:10:59;1.70;99.90
20744;DHT22;56303;52.160;-0.428;2023-03-09T06:13:27;1.60;99.90
20744;DHT22;56303;52.160;-0.428;2023-03-09T06:15:54;1.70;99.90
20744;DHT22;56303;52.160;-0.428;2023-03-09T06:18:21;1.30;99.90
20744;DHT22;56303;52.160;-0.428;2023-03-09T06:20:48;1.60;99.90
20744;DHT22;56303;52.160;-0.428;2023-03-09T06:23:16;1.60;99.90
20744;DHT22;56303;52.160;-0.428;2023-03-09T06:25:43;1.60;99.90
20744;DHT22;56303;52.160;-0.428;2023-03-09T06:28:09;1.60;99.90
20744;DHT22;56303;52.160;-0.428;2023-03-09T06:30:38;1.50;99.90
20744;DHT22;56303;52.160;-0.428;2023-03-09T06:33:07;1.50;99.90
20744;DHT22;56303;52.160;-0.428;2023-03-09T06:35:34;1.50;99.90
20744;DHT22;56303;52.160;-0.428;2023-03-09T06:38:02;1.90;99.90
20744;DHT22;56303;52.160;-0.428;2023-03-09T06:40:30;1.50;99.90
20744;DHT22;56303;52.160;-0.428;2023-03-09T06:42:56;1.60;99.90
20744;DHT22;56303;52.160;-0.428;2023-03-09T06:45:24;1.50;99.90
20744;DHT22;56303;52.160;-0.428;2023-03-09T06:47:55;1.30;99.90
20744;DHT22;56303;52.160;-0.428;2023-03-09T06:50:24;1.50;99.90
20744;DHT22;56303;52.160;-0.428;2023-03-09T06:52:51;1.40;99.90
20744;DHT22;56303;52.160;-0.428;2023-03-09T06:55:19;1.50;99.90
20744;DHT22;56303;52.160;-0.428;2023-03-09T06:57:47;1.40;99.90
20744;DHT22;56303;52.160;-0.428;2023-03-09T07:00:14;1.20;99.90
20744;DHT22;56303;52.160;-0.428;2023-03-09T07:02:41;1.20;99.90
20744;DHT22;56303;52.160;-0.428;2023-03-09T07:05:08;1.30;99.90
20744;DHT22;56303;52.160;-0.428;2023-03-09T07:07:35;1.30;99.90
20744;DHT22;56303;52.160;-0.428;2023-03-09T07:10:04;1.20;99.90
20744;DHT22;56303;52.160;-0.428;2023-03-09T07:12:31;1.30;99.90
20744;DHT22;56303;52.160;-0.428;2023-03-09T07:14:58;1.20;99.90
20744;DHT22;56303;52.160;-0.428;2023-03-09T07:17:25;1.10;99.90
20744;DHT22;56303;52.160;-0.428;2023-03-09T07:19:52;1.10;99.90
20744;DHT22;56303;52.160;-0.428;2023-03-09T07:22:19;1.30;99.90
20744;DHT22;56303;52.160;-0.428;2023-03-09T07:24:46;1.20;99.90
20744;DHT22;56303;52.160;-0.428;2023-03-09T07:27:12;1.20;99.90
20744;DHT22;56303;52.160;-0.428;2023-03-09T07:29:39;1.30;99.90
20744;DHT22;56303;52.160;-0.428;2023-03-09T07:32:07;1.20;99.90
20744;DHT22;56303;52.160;-0.428;2023-03-09T07:34:35;1.10;99.90
20744;DHT22;56303;52.160;-0.428;2023-03-09T07:37:01;1.50;99.90
20744;DHT22;56303;52.160;-0.428;2023-03-09T07:39:28;1.20;99.90
20744;DHT22;56303;52.160;-0.428;2023-03-09T07:41:55;1.20;99.90
20744;DHT22;56303;52.160;-0.428;2023-03-09T07:44:22;1.30;99.90
20744;DHT22;56303;52.160;-0.428;2023-03-09T07:46:49;0.90;99.90
20744;DHT22;56303;52.160;-0.428;2023-03-09T07:49:16;1.20;99.90
20744;DHT22;56303;52.160;-0.428;2023-03-09T07:51:42;1.30;99.90
20744;DHT22;56303;52.160;-0.428;2023-03-09T07:54:09;1.20;99.90
20744;DHT22;56303;52.160;-0.428;2023-03-09T07:56:36;1.30;99.90
20744;DHT22;56303;52.160;-0.428;2023-03-09T07:59:03;1.30;99.90
20744;DHT22;56303;52.160;-0.428;2023-03-09T08:01:30;1.30;99.90
20744;DHT22;56303;52.160;-0.428;2023-03-09T08:03:57;1.10;99.90
20744;DHT22;56303;52.160;-0.428;2023-03-09T08:06:24;1.30;99.90
20744;DHT22;56303;52.160;-0.428;2023-03-09T08:08:53;1.20;99.90
20744;DHT22;56303;52.160;-0.428;2023-03-09T08:11:19;1.20;99.90
20744;DHT22;56303;52.160;-0.428;2023-03-09T08:13:46;1.30;99.90
20744;DHT22;56303;52.160;-0.428;2023-03-09T08:16:13;1.20;99.90
20744;DHT22;56303;52.160;-0.428;2023-03-09T12:12:35;2.50;99.90
20744;DHT22;56303;52.160;-0.428;2023-03-09T12:18:02;2.90;99.90
20744;DHT22;56303;52.160;-0.428;2023-03-09T12:20:37;3.10;99.90
20744;DHT22;56303;52.160;-0.428;2023-03-09T12:26:21;3.10;99.90
20744;DHT22;56303;52.160;-0.428;2023-03-09T12:31:40;2.90;99.90
20744;DHT22;56303;52.160;-0.428;2023-03-09T12:36:40;3.10;99.90
20744;DHT22;56303;52.160;-0.428;2023-03-09T12:49:54;3.40;99.90
20744;DHT22;56303;52.160;-0.428;2023-03-09T12:52:32;3.40;99.90
20744;DHT22;56303;52.160;-0.428;2023-03-09T12:55:19;3.60;99.90
20744;DHT22;56303;52.160;-0.428;2023-03-09T12:57:48;3.60;99.90
20744;DHT22;56303;52.160;-0.428;2023-03-09T13:02:55;3.20;99.90
20744;DHT22;56303;52.160;-0.428;2023-03-09T13:05:28;3.20;99.90
20744;DHT22;56303;52.160;-0.428;2023-03-09T13:07:59;3.50;99.90
20744;DHT22;56303;52.160;-0.428;2023-03-09T13:10:30;3.50;99.90
20744;DHT22;56303;52.160;-0.428;2023-03-09T13:13:51;3.50;99.90
20744;DHT22;56303;52.160;-0.428;2023-03-09T13:24:36;3.70;99.90
20744;DHT22;56303;52.160;-0.428;2023-03-09T13:35:22;4.10;99.90
20744;DHT22;56303;52.160;-0.428;2023-03-09T13:37:53;4.20;99.90
20744;DHT22;56303;52.160;-0.428;2023-03-09T13:40:32;4.50;99.90
20744;DHT22;56303;52.160;-0.428;2023-03-09T13:43:02;4.10;99.90
20744;DHT22;56303;52.160;-0.428;2023-03-09T13:45:32;4.20;99.90
20744;DHT22;56303;52.160;-0.428;2023-03-09T13:48:01;4.10;99.90
20744;DHT22;56303;52.160;-0.428;2023-03-09T13:50:33;4.20;99.90
20744;DHT22;56303;52.160;-0.428;2023-03-09T13:53:18;4.40;99.90
20744;DHT22;56303;52.160;-0.428;2023-03-09T13:56:00;4.60;99.90
20744;DHT22;56303;52.160;-0.428;2023-03-09T13:58:29;4.80;99.90
20744;DHT22;56303;52.160;-0.428;2023-03-09T14:00:59;4.60;99.90
20744;DHT22;56303;52.160;-0.428;2023-03-09T14:03:28;4.50;99.90
20744;DHT22;56303;52.160;-0.428;2023-03-09T14:06:07;4.30;99.90
20744;DHT22;56303;52.160;-0.428;2023-03-09T14:08:55;4.50;99.90
20744;DHT22;56303;52.160;-0.428;2023-03-09T14:11:25;4.50;99.90
20744;DHT22;56303;52.160;-0.428;2023-03-09T14:14:01;4.60;99.90
20744;DHT22;56303;52.160;-0.428;2023-03-09T14:16:32;4.60;99.90
20744;DHT22;56303;52.160;-0.428;2023-03-09T14:19:02;4.50;99.90
20744;DHT22;56303;52.160;-0.428;2023-03-09T14:21:31;4.50;99.90
20744;DHT22;56303;52.160;-0.428;2023-03-09T14:24:21;4.30;99.90
20744;DHT22;56303;52.160;-0.428;2023-03-09T14:26:49;4.10;99.90
20744;DHT22;56303;52.160;-0.428;2023-03-09T14:29:22;4.00;99.90
20744;DHT22;56303;52.160;-0.428;2023-03-09T14:32:28;4.30;99.90
20744;DHT22;56303;52.160;-0.428;2023-03-09T14:34:58;4.70;99.90
20744;DHT22;56303;52.160;-0.428;2023-03-09T14:37:51;4.40;99.90
20744;DHT22;56303;52.160;-0.428;2023-03-09T14:40:24;4.60;99.90
20744;DHT22;56303;52.160;-0.428;2023-03-09T14:42:51;4.10;99.90
20744;DHT22;56303;52.160;-0.428;2023-03-09T14:45:23;4.10;99.90
20744;DHT22;56303;52.160;-0.428;2023-03-09T14:47:52;4.00;99.90
20744;DHT22;56303;52.160;-0.428;2023-03-09T14:50:25;3.60;99.90
20744;DHT22;56303;52.160;-0.428;2023-03-09T14:52:52;4.30;99.90
20744;DHT22;56303;52.160;-0.428;2023-03-09T14:55:21;4.40;99.90
20744;DHT22;56303;52.160;-0.428;2023-03-09T14:57:48;4.40;99.90
20744;DHT22;56303;52.160;-0.428;2023-03-09T15:00:33;4.20;99.90
20744;DHT22;56303;52.160;-0.428;2023-03-09T15:03:00;4.10;99.90
20744;DHT22;56303;52.160;-0.428;2023-03-09T15:05:29;4.10;99.90
20744;DHT22;56303;52.160;-0.428;2023-03-09T15:07:56;4.30;99.90
20744;DHT22;56303;52.160;-0.428;2023-03-09T15:10:26;4.30;99.90
20744;DHT22;56303;52.160;-0.428;2023-03-09T15:12:53;4.40;99.90
20744;DHT22;56303;52.160;-0.428;2023-03-09T15:15:24;4.10;99.90
20744;DHT22;56303;52.160;-0.428;2023-03-09T15:17:51;4.30;99.90
20744;DHT22;56303;52.160;-0.428;2023-03-09T15:20:21;4.30;99.90
20744;DHT22;56303;52.160;-0.428;2023-03-09T15:23:02;4.30;99.90
20744;DHT22;56303;52.160;-0.428;2023-03-09T15:25:29;4.40;99.90
20744;DHT22;56303;52.160;-0.428;2023-03-09T15:27:56;4.70;99.90
20744;DHT22;56303;52.160;-0.428;2023-03-09T15:30:23;4.60;99.90
20744;DHT22;56303;52.160;-0.428;2023-03-09T15:32:52;4.80;99.90
20744;DHT22;56303;52.160;-0.428;2023-03-09T15:35:20;4.80;99.90
20744;DHT22;56303;52.160;-0.428;2023-03-09T15:37:47;4.50;99.90
20744;DHT22;56303;52.160;-0.428;2023-03-09T15:40:16;4.50;99.90
20744;DHT22;56303;52.160;-0.428;2023-03-09T15:42:43;4.60;99.90
20744;DHT22;56303;52.160;-0.428;2023-03-09T15:45:15;4.60;99.90
20744;DHT22;56303;52.160;-0.428;2023-03-09T15:47:43;4.70;99.90
20744;DHT22;56303;52.160;-0.428;2023-03-09T15:50:11;4.40;99.90
20744;DHT22;56303;52.160;-0.428;2023-03-09T15:52:39;4.30;99.90
20744;DHT22;56303;52.160;-0.428;2023-03-09T15:55:06;4.40;99.90
20744;DHT22;56303;52.160;-0.428;2023-03-09T15:57:33;4.40;99.90
20744;DHT22;56303;52.160;-0.428;2023-03-09T16:00:00;4.30;99.90
20744;DHT22;56303;52.160;-0.428;2023-03-09T16:02:27;4.40;99.90
20744;DHT22;56303;52.160;-0.428;2023-03-09T16:04:54;4.30;99.90
20744;DHT22;56303;52.160;-0.428;2023-03-09T16:07:20;4.20;99.90
20744;DHT22;56303;52.160;-0.428;2023-03-09T16:09:47;4.10;99.90
20744;DHT22;56303;52.160;-0.428;2023-03-09T16:12:14;4.20;99.90
20744;DHT22;56303;52.160;-0.428;2023-03-09T16:14:41;4.20;99.90
20744;DHT22;56303;52.160;-0.428;2023-03-09T16:17:07;4.40;99.90
20744;DHT22;56303;52.160;-0.428;2023-03-09T16:19:34;4.50;99.90
20744;DHT22;56303;52.160;-0.428;2023-03-09T16:22:09;4.40;99.90
20744;DHT22;56303;52.160;-0.428;2023-03-09T16:24:38;4.40;99.90
20744;DHT22;56303;52.160;-0.428;2023-03-09T16:27:05;4.40;99.90
20744;DHT22;56303;52.160;-0.428;2023-03-09T16:29:32;4.30;99.90
20744;DHT22;56303;52.160;-0.428;2023-03-09T16:31:58;4.40;99.90
20744;DHT22;56303;52.160;-0.428;2023-03-09T16:34:30;4.50;99.90
20744;DHT22;56303;52.160;-0.428;2023-03-09T16:36:58;4.30;99.90
20744;DHT22;56303;52.160;-0.428;2023-03-09T16:39:25;4.60;99.90
20744;DHT22;56303;52.160;-0.428;2023-03-09T16:41:52;4.40;99.90
20744;DHT22;56303;52.160;-0.428;2023-03-09T16:44:20;4.30;99.90
20744;DHT22;56303;52.160;-0.428;2023-03-09T16:46:54;4.30;99.90
20744;DHT22;56303;52.160;-0.428;2023-03-09T16:49:26;4.20;99.90
20744;DHT22;56303;52.160;-0.428;2023-03-09T16:51:53;4.30;99.90
20744;DHT22;56303;52.160;-0.428;2023-03-09T16:54:20;4.10;99.90
20744;DHT22;56303;52.160;-0.428;2023-03-09T16:56:48;4.20;99.90
20744;DHT22;56303;52.160;-0.428;2023-03-09T16:59:15;4.00;99.90
20744;DHT22;56303;52.160;-0.428;2023-03-09T17:01:42;4.00;99.90
20744;DHT22;56303;52.160;-0.428;2023-03-09T17:04:09;4.00;99.90
20744;DHT22;56303;52.160;-0.428;2023-03-09T17:06:37;4.00;99.90
20744;DHT22;56303;52.160;-0.428;2023-03-09T17:09:04;4.00;99.90
20744;DHT22;56303;52.160;-0.428;2023-03-09T17:11:32;4.00;99.90
20744;DHT22;56303;52.160;-0.428;2023-03-09T17:13:59;4.10;99.90
20744;DHT22;56303;52.160;-0.428;2023-03-09T17:16:25;4.10;99.90
20744;DHT22;56303;52.160;-0.428;2023-03-09T17:18:56;4.10;99.90
20744;DHT22;56303;52.160;-0.428;2023-03-09T17:21:23;4.20;99.90
20744;DHT22;56303;52.160;-0.428;2023-03-09T17:23:50;4.20;99.90
20744;DHT22;56303;52.160;-0.428;2023-03-09T17:26:18;4.10;99.90
20744;DHT22;56303;52.160;-0.428;2023-03-09T17:28:45;4.20;99.90
20744;DHT22;56303;52.160;-0.428;2023-03-09T17:31:17;4.20;99.90
20744;DHT22;56303;52.160;-0.428;2023-03-09T17:33:45;4.20;99.90
20744;DHT22;56303;52.160;-0.428;2023-03-09T17:36:14;4.10;99.90
20744;DHT22;56303;52.160;-0.428;2023-03-09T17:38:43;4.20;99.90
20744;DHT22;56303;52.160;-0.428;2023-03-09T17:41:10;4.20;99.90
20744;DHT22;56303;52.160;-0.428;2023-03-09T17:43:37;4.20;99.90
20744;DHT22;56303;52.160;-0.428;2023-03-09T17:46:06;4.20;99.90
20744;DHT22;56303;52.160;-0.428;2023-03-09T17:48:35;4.30;99.90
20744;DHT22;56303;52.160;-0.428;2023-03-09T17:51:05;4.20;99.90
20744;DHT22;56303;52.160;-0.428;2023-03-09T17:53:33;4.30;99.90
20744;DHT22;56303;52.160;-0.428;2023-03-09T17:56:02;4.30;99.90
20744;DHT22;56303;52.160;-0.428;2023-03-09T17:58:30;4.30;99.90
20744;DHT22;56303;52.160;-0.428;2023-03-09T18:00:56;4.30;99.90
20744;DHT22;56303;52.160;-0.428;2023-03-09T18:03:23;4.40;99.90
20744;DHT22;56303;52.160;-0.428;2023-03-09T18:05:50;4.40;99.90
20744;DHT22;56303;52.160;-0.428;2023-03-09T18:08:17;4.30;99.90
20744;DHT22;56303;52.160;-0.428;2023-03-09T18:10:44;4.40;99.90
20744;DHT22;56303;52.160;-0.428;2023-03-09T18:13:11;4.50;99.90
20744;DHT22;56303;52.160;-0.428;2023-03-09T18:15:39;4.50;99.90
20744;DHT22;56303;52.160;-0.428;2023-03-09T18:18:07;4.50;99.90
20744;DHT22;56303;52.160;-0.428;2023-03-09T18:20:35;4.50;99.90
20744;DHT22;56303;52.160;-0.428;2023-03-09T18:23:02;4.50;99.90
20744;DHT22;56303;52.160;-0.428;2023-03-09T18:25:30;4.20;99.90
20744;DHT22;56303;52.160;-0.428;2023-03-09T18:27:57;4.40;99.90
20744;DHT22;56303;52.160;-0.428;2023-03-09T18:30:24;4.40;99.90
20744;DHT22;56303;52.160;-0.428;2023-03-09T18:32:53;4.60;99.90
20744;DHT22;56303;52.160;-0.428;2023-03-09T18:35:20;4.60;99.90
20744;DHT22;56303;52.160;-0.428;2023-03-09T18:37:49;4.50;99.90
20744;DHT22;56303;52.160;-0.428;2023-03-09T18:40:17;4.40;99.90
20744;DHT22;56303;52.160;-0.428;2023-03-09T18:42:43;4.40;99.90
20744;DHT22;56303;52.160;-0.428;2023-03-09T18:45:10;4.50;99.90
20744;DHT22;56303;52.160;-0.428;2023-03-09T18:47:37;4.50;99.90
20744;DHT22;56303;52.160;-0.428;2023-03-09T18:50:04;4.50;99.90
20744;DHT22;56303;52.160;-0.428;2023-03-09T18:52:31;4.40;99.90
20744;DHT22;56303;52.160;-0.428;2023-03-09T18:54:58;4.40;99.90
20744;DHT22;56303;52.160;-0.428;2023-03-09T18:57:25;4.90;99.90
20744;DHT22;56303;52.160;-0.428;2023-03-09T18:59:51;4.50;99.90
20744;DHT22;56303;52.160;-0.428;2023-03-09T19:02:18;4.40;99.90
20744;DHT22;56303;52.160;-0.428;2023-03-09T19:04:45;4.40;99.90
20744;DHT22;56303;52.160;-0.428;2023-03-09T19:07:12;4.40;99.90
20744;DHT22;56303;52.160;-0.428;2023-03-09T19:09:40;4.40;99.90
20744;DHT22;56303;52.160;-0.428;2023-03-09T19:12:07;4.40;99.90
20744;DHT22;56303;52.160;-0.428;2023-03-09T19:14:34;4.40;99.90
20744;DHT22;56303;52.160;-0.428;2023-03-09T19:17:01;4.40;99.90
20744;DHT22;56303;52.160;-0.428;2023-03-09T19:19:28;4.50;99.90
20744;DHT22;56303;52.160;-0.428;2023-03-09T19:21:54;4.30;99.90
20744;DHT22;56303;52.160;-0.428;2023-03-09T19:24:21;4.40;99.90
20744;DHT22;56303;52.160;-0.428;2023-03-09T19:26:48;4.50;99.90
20744;DHT22;56303;52.160;-0.428;2023-03-09T19:29:15;4.40;99.90
20744;DHT22;56303;52.160;-0.428;2023-03-09T19:31:42;4.50;99.90
20744;DHT22;56303;52.160;-0.428;2023-03-09T19:34:12;4.60;99.90
20744;DHT22;56303;52.160;-0.428;2023-03-09T19:36:39;4.80;99.90
20744;DHT22;56303;52.160;-0.428;2023-03-09T19:39:06;4.70;99.90
20744;DHT22;56303;52.160;-0.428;2023-03-09T19:41:33;4.80;99.90
20744;DHT22;56303;52.160;-0.428;2023-03-09T19:44:04;4.70;99.90
20744;DHT22;56303;52.160;-0.428;2023-03-09T19:46:31;4.60;99.90
20744;DHT22;56303;52.160;-0.428;2023-03-09T19:48:58;4.50;99.90
20744;DHT22;56303;52.160;-0.428;2023-03-09T19:51:27;4.40;99.90
20744;DHT22;56303;52.160;-0.428;2023-03-09T19:54:00;4.70;99.90
20744;DHT22;56303;52.160;-0.428;2023-03-09T19:56:36;4.50;99.90
20744;DHT22;56303;52.160;-0.428;2023-03-09T19:59:06;4.40;99.90
20744;DHT22;56303;52.160;-0.428;2023-03-09T20:01:38;4.40;99.90
20744;DHT22;56303;52.160;-0.428;2023-03-09T20:04:08;4.40;99.90
20744;DHT22;56303;52.160;-0.428;2023-03-09T20:06:38;4.30;99.90
20744;DHT22;56303;52.160;-0.428;2023-03-09T20:09:06;4.40;99.90
20744;DHT22;56303;52.160;-0.428;2023-03-09T20:11:32;4.40;99.90
20744;DHT22;56303;52.160;-0.428;2023-03-09T20:13:59;4.30;99.90
20744;DHT22;56303;52.160;-0.428;2023-03-09T20:16:28;4.30;99.90
20744;DHT22;56303;52.160;-0.428;2023-03-09T20:18:56;4.30;99.90
20744;DHT22;56303;52.160;-0.428;2023-03-09T20:21:24;4.30;99.90
20744;DHT22;56303;52.160;-0.428;2023-03-09T20:23:51;4.30;99.90
20744;DHT22;56303;52.160;-0.428;2023-03-09T20:26:21;4.30;99.90
20744;DHT22;56303;52.160;-0.428;2023-03-09T20:28:49;4.20;99.90
20744;DHT22;56303;52.160;-0.428;2023-03-09T20:31:19;4.20;99.90
20744;DHT22;56303;52.160;-0.428;2023-03-09T20:33:47;4.30;99.90
20744;DHT22;56303;52.160;-0.428;2023-03-09T20:36:14;4.30;99.90
20744;DHT22;56303;52.160;-0.428;2023-03-09T20:38:41;4.40;99.90
20744;DHT22;56303;52.160;-0.428;2023-03-09T20:41:11;4.30;99.90
20744;DHT22;56303;52.160;-0.428;2023-03-09T20:43:39;4.20;99.90
20744;DHT22;56303;52.160;-0.428;2023-03-09T20:46:07;4.20;99.90
20744;DHT22;56303;52.160;-0.428;2023-03-09T20:48:35;4.30;99.90
20744;DHT22;56303;52.160;-0.428;2023-03-09T20:51:02;4.20;99.90
20744;DHT22;56303;52.160;-0.428;2023-03-09T20:53:29;4.20;99.90
20744;DHT22;56303;52.160;-0.428;2023-03-09T20:55:56;4.20;99.90
20744;DHT22;56303;52.160;-0.428;2023-03-09T20:58:24;4.10;99.90
20744;DHT22;56303;52.160;-0.428;2023-03-09T21:00:51;4.10;99.90